Time;durP1;ratioP1;P1;durP2;ratioP2;P2;SDS_P1;SDS_P2;PMS_P1;PMS_P2;Temp;Humidity;BMP_temperature;BMP_pressure;BME280_temperature;BME280_humidity;BME280_pressure;Samples;Min_cycle;Max_cycle;Signal;HPM_P1;HPM_P2
2022/09/15 00:01:41;;;;;;;3.53;3.23;;;;;;;21.25;63.61;99167.25;5068286;28;20625;-69
2022/09/15 00:04:08;;;;;;;3.50;3.30;;;;;;;21.28;63.57;99177.50;5067691;28;20196;-68
2022/09/15 00:06:36;;;;;;;4.67;3.23;;;;;;;21.27;63.58;99175.88;5069630;28;20257;-71
2022/09/15 00:09:04;;;;;;;4.97;3.30;;;;;;;21.30;63.60;99164.53;5070134;28;20228;-69
2022/09/15 00:11:33;;;;;;;3.30;3.10;;;;;;;21.31;63.81;99163.44;5069929;28;20196;-73
2022/09/15 00:14:04;;;;;;;3.23;2.90;;;;;;;21.32;63.86;99170.47;5069107;28;20695;-69
2022/09/15 00:16:32;;;;;;;3.30;2.93;;;;;;;21.34;64.02;99159.38;5068555;28;20191;-67
2022/09/15 00:18:59;;;;;;;3.90;3.27;;;;;;;21.29;63.88;99162.91;5069742;28;20249;-67
2022/09/15 00:21:28;;;;;;;7.53;3.87;;;;;;;21.17;63.96;99167.78;5061514;28;20192;-68
2022/09/15 00:23:55;;;;;;;5.23;3.83;;;;;;;21.17;64.44;99167.78;5070967;28;20258;-67
2022/09/15 00:26:24;;;;;;;3.40;3.10;;;;;;;21.19;64.36;99157.50;5070235;28;20663;-67
2022/09/15 00:28:52;;;;;;;3.73;3.30;;;;;;;21.18;64.41;99155.06;5069147;28;20557;-68
2022/09/15 00:31:21;;;;;;;3.40;3.10;;;;;;;21.19;64.53;99162.91;5070991;28;20196;-68
2022/09/15 00:33:49;;;;;;;7.27;3.50;;;;;;;21.18;64.47;99155.91;5071718;28;20223;-68
2022/09/15 00:36:17;;;;;;;4.60;3.40;;;;;;;21.14;64.74;99160.22;5071264;28;20660;-68
2022/09/15 00:38:44;;;;;;;3.33;3.07;;;;;;;21.14;64.89;99160.22;5071424;28;20200;-68
2022/09/15 00:41:14;;;;;;;3.73;3.43;;;;;;;21.02;65.48;99157.00;5071853;28;20196;-68
2022/09/15 00:43:47;;;;;;;3.60;3.30;;;;;;;20.96;65.58;99151.88;5074091;28;20196;-68
2022/09/15 00:46:16;;;;;;;3.43;3.20;;;;;;;20.89;65.79;99146.72;5075166;28;20241;-68
2022/09/15 00:48:51;;;;;;;5.63;3.33;;;;;;;20.88;66.35;99145.09;5075537;28;20196;-68
2022/09/15 00:51:22;;;;;;;3.70;3.33;;;;;;;20.87;65.93;99148.06;5075898;28;20213;-67
2022/09/15 00:53:50;;;;;;;3.93;3.63;;;;;;;20.91;65.46;99155.41;5075485;28;20208;-68
2022/09/15 00:56:19;;;;;;;5.33;3.27;;;;;;;20.92;65.53;99146.22;5074943;28;20253;-68
2022/09/15 00:58:53;;;;;;;4.70;3.70;;;;;;;20.97;64.89;99148.91;5074701;28;20286;-68
2022/09/15 01:01:19;;;;;;;4.03;3.73;;;;;;;20.94;65.08;99145.94;5075439;28;20192;-68
2022/09/15 01:03:47;;;;;;;4.30;3.90;;;;;;;20.80;65.49;99145.66;5074728;28;20254;-68
2022/09/15 01:06:20;;;;;;;4.27;3.83;;;;;;;20.90;65.44;99140.22;5074967;28;20191;-68
2022/09/15 01:08:52;;;;;;;4.23;3.70;;;;;;;20.87;65.46;99138.09;5074773;28;20694;-68
2022/09/15 01:11:19;;;;;;;8.33;4.27;;;;;;;20.82;65.43;99135.38;5074614;28;20184;-67
2022/09/15 01:13:46;;;;;;;7.73;4.10;;;;;;;20.76;65.80;99135.66;5074440;28;20690;-67
2022/09/15 01:16:20;;;;;;;5.33;3.53;;;;;;;20.73;66.19;99126.19;5074920;28;20207;-68
2022/09/15 01:18:58;;;;;;;4.00;3.73;;;;;;;20.69;65.71;99118.94;5074505;28;20188;-67
2022/09/15 01:21:37;;;;;;;4.43;4.00;;;;;;;20.61;65.89;99120.25;5055679;28;20239;-67
2022/09/15 01:24:36;;;;;;;6.77;3.63;;;;;;;20.63;65.85;99127.00;5054490;28;20739;-67
2022/09/15 01:27:17;;;;;;;3.67;3.37;;;;;;;20.69;65.82;99119.72;5051663;28;20201;-67
2022/09/15 01:29:56;;;;;;;3.77;3.17;;;;;;;20.73;65.33;99118.09;5054090;28;20243;-67
2022/09/15 01:35:27;;;;;;;9.03;3.90;;;;;;;20.79;65.37;99113.50;5054355;28;20212;-67
2022/09/15 01:38:00;;;;;;;4.43;3.83;;;;;;;20.81;65.11;99120.25;5055382;28;20262;-67
2022/09/15 01:40:37;;;;;;;3.70;3.40;;;;;;;20.80;65.48;99115.94;5054524;28;20188;-67
2022/09/15 01:43:06;;;;;;;4.23;3.83;;;;;;;20.78;65.26;99118.09;5054881;28;20250;-68
2022/09/15 01:45:38;;;;;;;3.93;3.60;;;;;;;20.75;65.73;99120.53;5052219;28;20201;-68
2022/09/15 01:48:07;;;;;;;4.70;3.97;;;;;;;20.76;65.79;99128.38;5053818;28;20185;-68
2022/09/15 01:50:40;;;;;;;9.93;4.07;;;;;;;20.72;65.94;99130.00;5053525;28;20258;-67
2022/09/15 01:53:12;;;;;;;4.53;4.20;;;;;;;20.75;66.04;99128.63;5053511;28;20661;-67
2022/09/15 01:55:43;;;;;;;6.37;4.43;;;;;;;20.69;66.67;99124.31;5053974;28;20266;-68
2022/09/15 01:58:09;;;;;;;9.13;4.47;;;;;;;20.66;66.65;99141.06;5055017;28;20254;-68
2022/09/15 02:00:43;;;;;;;7.83;3.67;;;;;;;20.63;66.00;99130.78;5053401;28;20733;-67
2022/09/15 02:03:17;;;;;;;4.63;4.10;;;;;;;20.63;66.29;99126.22;5052854;28;20649;-68
2022/09/15 02:05:50;;;;;;;5.10;3.60;;;;;;;20.70;65.94;99129.44;5054074;28;20250;-67
2022/09/15 02:08:26;;;;;;;4.53;3.93;;;;;;;20.72;65.78;99126.47;5054104;28;20248;-67
2022/09/15 02:11:02;;;;;;;6.00;4.63;;;;;;;20.71;66.24;99127.56;5053717;28;20283;-67
2022/09/15 02:13:36;;;;;;;17.47;4.47;;;;;;;20.69;66.75;99124.31;5053482;28;20246;-68
2022/09/15 02:16:12;;;;;;;8.80;4.37;;;;;;;20.69;66.81;99129.72;5053824;28;20184;-68
2022/09/15 02:18:44;;;;;;;5.70;3.73;;;;;;;20.67;66.52;99128.09;5053483;28;20184;-68
2022/09/15 02:21:16;;;;;;;4.47;3.40;;;;;;;20.70;66.26;99137.53;5053298;28;20661;-68
2022/09/15 02:23:51;;;;;;;4.17;3.40;;;;;;;20.67;66.31;99137.25;5054336;28;20208;-68
2022/09/15 02:26:23;;;;;;;7.37;3.73;;;;;;;20.68;66.40;99139.69;5053187;28;20191;-68
2022/09/15 02:28:52;;;;;;;4.47;4.07;;;;;;;20.42;67.04;99124.59;5053564;28;20665;-68
2022/09/15 02:31:23;;;;;;;4.03;3.73;;;;;;;20.08;68.20;99139.56;5053204;28;20188;-68
2022/09/15 02:33:55;;;;;;;5.03;4.03;;;;;;;20.04;68.98;99133.09;5054108;28;20234;-67
2022/09/15 02:36:24;;;;;;;7.40;4.67;;;;;;;20.20;68.47;99134.78;5053269;28;20184;-67
2022/09/15 02:38:57;;;;;;;7.93;4.43;;;;;;;20.24;68.13;99133.16;5053286;28;20193;-67
2022/09/15 02:41:24;;;;;;;11.80;4.43;;;;;;;20.28;68.06;99135.06;5053130;28;20238;-67
2022/09/15 02:43:51;;;;;;;8.93;4.20;;;;;;;20.18;67.83;99131.56;5053518;28;20262;-67
2022/09/15 02:46:22;;;;;;;7.93;4.77;;;;;;;20.22;68.40;99132.63;5053164;28;20556;-67
2022/09/15 02:48:49;;;;;;;15.83;4.50;;;;;;;20.28;68.07;99128.84;5052116;28;20200;-67
2022/09/15 02:51:17;;;;;;;8.53;4.03;;;;;;;20.20;67.96;99126.69;5052863;28;20675;-67
2022/09/15 02:53:45;;;;;;;10.50;4.57;;;;;;;20.12;68.68;99128.03;5053648;28;20572;-67
2022/09/15 02:56:12;;;;;;;8.50;4.43;;;;;;;20.16;68.62;99136.38;5053144;28;20224;-67
2022/09/15 02:58:39;;;;;;;4.87;4.17;;;;;;;20.22;68.54;99130.72;5052730;28;20188;-67
2022/09/15 03:01:07;;;;;;;11.53;4.07;;;;;;;20.24;68.63;99128.59;5053568;28;20189;-67
2022/09/15 03:03:35;;;;;;;6.23;4.20;;;;;;;20.20;68.67;99129.38;5052799;28;20742;-67
2022/09/15 03:06:16;;;;;;;7.97;4.30;;;;;;;20.23;68.93;99120.75;5052404;28;20274;-68
2022/09/15 03:08:44;;;;;;;11.27;4.70;;;;;;;20.26;68.57;99122.94;5053585;28;20659;-67
2022/09/15 03:11:11;;;;;;;5.90;4.50;;;;;;;20.27;68.74;99122.66;5053238;28;20276;-67
2022/09/15 03:13:38;;;;;;;6.43;3.70;;;;;;;20.26;68.50;99131.03;5052551;28;20200;-68
2022/09/15 03:16:07;;;;;;;5.13;4.10;;;;;;;20.15;68.61;99129.38;5051624;28;20632;-67
2022/09/15 03:18:36;;;;;;;7.67;4.67;;;;;;;20.18;69.06;99131.56;5051526;28;20192;-67
2022/09/15 03:21:04;;;;;;;11.00;3.97;;;;;;;20.18;68.99;99128.84;5068474;28;20639;-67
2022/09/15 03:23:31;;;;;;;10.97;4.40;;;;;;;20.21;69.06;99126.41;5072636;28;20687;-67
2022/09/15 03:25:58;;;;;;;6.70;4.13;;;;;;;20.19;68.72;99130.47;5072740;28;20200;-67
2022/09/15 03:28:25;;;;;;;13.33;4.70;;;;;;;20.18;69.21;99129.66;5072808;28;20227;-67
2022/09/15 03:30:52;;;;;;;14.43;4.33;;;;;;;20.16;69.22;99117.50;5072390;28;20607;-67
2022/09/15 03:33:19;;;;;;;13.37;5.07;;;;;;;20.19;69.14;99125.06;5073089;28;20257;-67
2022/09/15 03:35:48;;;;;;;8.20;4.53;;;;;;;20.10;69.87;99118.59;5072029;28;20224;-67
2022/09/15 03:38:15;;;;;;;5.87;4.60;;;;;;;20.07;69.98;99121.78;5072144;28;20254;-67
2022/09/15 03:40:42;;;;;;;7.73;4.30;;;;;;;20.00;70.23;99121.22;5073019;28;20207;-68
2022/09/15 03:43:10;;;;;;;8.20;4.37;;;;;;;20.06;70.28;99130.94;5072927;28;20254;-68
2022/09/15 03:45:37;;;;;;;7.03;4.77;;;;;;;20.04;69.77;99130.38;5072778;28;20195;-68
2022/09/15 03:48:05;;;;;;;9.93;4.90;;;;;;;20.05;69.84;99134.72;5073192;28;20195;-68
2022/09/15 03:50:32;;;;;;;12.60;4.47;;;;;;;20.04;69.86;99133.09;5072224;28;20249;-67
2022/09/15 03:53:00;;;;;;;6.70;5.13;;;;;;;19.97;69.65;99127.94;5072198;28;20192;-67
2022/09/15 03:55:28;;;;;;;11.00;4.97;;;;;;;19.94;70.10;99130.38;5071694;28;20220;-67
2022/09/15 03:57:55;;;;;;;11.97;5.90;;;;;;;19.95;69.84;99126.59;5070774;28;20245;-67
2022/09/15 04:00:22;;;;;;;11.70;5.77;;;;;;;19.90;70.64;99131.97;5071000;28;20196;-67
2022/09/15 04:02:49;;;;;;;9.73;6.00;;;;;;;19.95;70.48;99123.91;5071202;28;20263;-68
2022/09/15 04:05:16;;;;;;;11.30;5.33;;;;;;;19.99;70.50;99119.59;5071484;28;20210;-67
2022/09/15 04:07:43;;;;;;;14.83;6.03;;;;;;;20.05;69.94;99115.84;5070806;28;20200;-67
2022/09/15 04:10:11;;;;;;;20.10;6.37;;;;;;;20.08;69.63;99123.38;5072109;28;20642;-67
2022/09/15 04:12:38;;;;;;;15.17;6.03;;;;;;;20.04;69.85;99111.50;5071864;28;20295;-67
2022/09/15 04:15:05;;;;;;;20.30;5.87;;;;;;;20.14;70.08;99127.75;5071708;28;20302;-67
2022/09/15 04:17:32;;;;;;;20.03;6.63;;;;;;;20.18;69.46;99140.44;5077821;28;20609;-69
2022/09/15 04:19:59;;;;;;;15.93;5.93;;;;;;;20.24;69.23;99138.56;5072210;28;20196;-68
2022/09/15 04:22:26;;;;;;;14.07;6.30;;;;;;;20.29;69.39;99143.97;5058221;28;20197;-68
2022/09/15 04:24:53;;;;;;;18.47;6.20;;;;;;;20.33;69.28;99131.56;5058249;28;20660;-69
2022/09/15 04:27:22;;;;;;;16.50;6.67;;;;;;;20.52;69.17;99143.47;5057543;28;20629;-69
2022/09/15 04:29:50;;;;;;;16.30;6.43;;;;;;;20.61;68.85;99132.97;5057689;28;20556;-70
2022/09/15 04:32:17;;;;;;;20.03;6.90;;;;;;;20.73;68.45;99142.41;5057356;28;20254;-69
2022/09/15 04:34:44;;;;;;;17.50;6.30;;;;;;;20.88;68.53;99153.19;5058881;28;20274;-69
2022/09/15 04:37:11;;;;;;;14.70;5.90;;;;;;;21.01;67.68;99162.66;5057991;28;20193;-69
2022/09/15 04:39:38;;;;;;;16.70;6.60;;;;;;;21.18;67.47;99172.09;5058306;28;20197;-68
2022/09/15 04:42:06;;;;;;;25.03;6.87;;;;;;;21.35;66.34;99172.63;5057369;28;20849;-70
2022/09/15 04:44:34;;;;;;;53.20;9.17;;;;;;;21.46;65.92;99187.75;5058247;28;20652;-66
2022/09/15 04:47:01;;;;;;;16.27;4.97;;;;;;;21.86;65.25;99184.97;5058452;28;20189;-65
2022/09/15 04:49:28;;;;;;;20.00;5.80;;;;;;;22.31;63.49;99187.44;5058368;28;20196;-65
2022/09/15 04:51:55;;;;;;;21.23;5.90;;;;;;;22.92;61.40;99185.97;5058290;28;20231;-65
2022/09/15 04:54:22;;;;;;;17.80;6.03;;;;;;;23.59;59.16;99198.66;5058412;28;20196;-65
2022/09/15 04:56:48;;;;;;;12.27;5.00;;;;;;;24.14;57.31;99196.13;5057194;28;20221;-65
2022/09/15 04:59:17;;;;;;;9.73;4.70;;;;;;;24.77;54.08;99216.47;5057473;28;20556;-64
2022/09/15 05:01:46;;;;;;;12.13;5.10;;;;;;;25.26;52.95;99207.78;5056637;28;20196;-63
2022/09/15 05:04:13;;;;;;;10.63;4.50;;;;;;;25.68;51.52;99206.78;5057742;28;20668;-64
2022/09/15 05:06:40;;;;;;;10.83;5.07;;;;;;;26.12;49.20;99201.56;5062812;28;20234;-63
2022/09/15 05:09:08;;;;;;;11.10;4.53;;;;;;;26.59;47.70;99198.38;5077632;28;20668;-64
2022/09/15 05:11:34;;;;;;;11.33;4.67;;;;;;;27.10;46.37;99207.78;5060293;28;20570;-63
2022/09/15 05:14:01;;;;;;;14.87;4.97;;;;;;;27.50;44.77;99204.06;5057232;28;20664;-63
2022/09/15 05:16:29;;;;;;;18.33;5.50;;;;;;;27.94;43.59;99205.88;5057198;28;20770;-65
2022/09/15 05:18:59;;;;;;;10.50;5.23;;;;;;;28.27;42.29;99204.34;5056564;28;20489;-64
2022/09/15 05:21:26;;;;;;;16.40;5.47;;;;;;;28.61;41.51;99207.16;5075740;28;20233;-64
2022/09/15 05:23:54;;;;;;;20.77;5.67;;;;;;;28.72;40.11;99205.72;5072649;28;20203;-63
2022/09/15 05:26:23;;;;;;;17.07;6.00;;;;;;;28.94;40.84;99205.56;5064818;28;20659;-63
2022/09/15 05:28:50;;;;;;;18.67;5.17;;;;;;;29.27;40.07;99202.00;5054768;28;20200;-64
2022/09/15 05:31:18;;;;;;;17.77;5.73;;;;;;;29.29;38.97;99193.47;5066404;28;20285;-64
2022/09/15 05:33:45;;;;;;;12.97;5.20;;;;;;;29.35;39.09;99203.13;5071268;28;20192;-64
2022/09/15 05:36:16;;;;;;;20.53;5.60;;;;;;;29.59;38.48;99195.19;5072092;28;20958;-66
2022/09/15 05:38:43;;;;;;;12.57;4.97;;;;;;;29.76;38.27;99181.44;5072471;28;20183;-64
2022/09/15 05:41:12;;;;;;;10.63;5.17;;;;;;;29.89;37.08;99185.91;5072605;28;20188;-63
2022/09/15 05:43:39;;;;;;;38.50;6.40;;;;;;;30.35;36.86;99191.31;5072289;28;20659;-65
2022/09/15 05:46:07;;;;;;;13.27;4.30;;;;;;;30.66;36.34;99180.72;5074104;28;20737;-64
2022/09/15 05:48:35;;;;;;;13.00;4.73;;;;;;;30.56;35.98;99183.06;5073992;28;20594;-64
2022/09/15 05:51:02;;;;;;;10.47;4.70;;;;;;;30.78;35.79;99183.56;5073827;28;20656;-63
2022/09/15 05:53:33;;;;;;;7.80;4.53;;;;;;;31.01;34.41;99179.34;5073955;28;20586;-63
2022/09/15 05:56:02;;;;;;;10.93;4.47;;;;;;;30.99;34.83;99181.59;5073863;28;20690;-63
2022/09/15 05:58:30;;;;;;;17.57;4.53;;;;;;;30.73;35.17;99174.75;5073848;28;20712;-63
2022/09/15 06:00:57;;;;;;;12.07;4.17;;;;;;;30.78;35.16;99183.56;5074215;28;20288;-64
2022/09/15 06:03:24;;;;;;;11.53;4.13;;;;;;;30.76;34.52;99183.13;5074057;28;20188;-64
2022/09/15 06:05:59;;;;;;;15.47;5.03;;;;;;;30.73;34.94;99183.78;5074022;28;20227;-64
2022/09/15 06:08:25;;;;;;;14.83;4.20;;;;;;;30.65;35.22;99183.81;5074013;28;20227;-63
2022/09/15 06:10:53;;;;;;;12.60;3.90;;;;;;;30.88;34.96;99183.19;5073756;28;20625;-63
2022/09/15 06:13:20;;;;;;;13.27;4.80;;;;;;;30.89;34.68;99184.78;5073670;28;20192;-63
2022/09/15 06:15:47;;;;;;;7.73;4.50;;;;;;;31.08;33.86;99185.09;5073974;28;20224;-63
2022/09/15 06:18:15;;;;;;;10.63;4.90;;;;;;;31.02;34.20;99189.16;5073689;28;20188;-63
2022/09/15 06:20:41;;;;;;;7.03;4.20;;;;;;;31.22;34.02;99177.34;5060867;28;20279;-64
2022/09/15 06:23:08;;;;;;;11.20;4.17;;;;;;;31.49;33.83;99176.78;5053375;28;20664;-63
2022/09/15 06:25:35;;;;;;;9.27;3.77;;;;;;;31.58;33.85;99174.72;5053747;28;20200;-63
2022/09/15 06:28:03;;;;;;;10.93;4.00;;;;;;;31.76;33.16;99165.13;5054050;28;20254;-63
2022/09/15 06:30:30;;;;;;;7.23;3.70;;;;;;;31.92;32.49;99166.06;5053744;28;20266;-63
2022/09/15 06:32:56;;;;;;;8.13;3.00;;;;;;;31.96;32.32;99169.72;5053520;28;20251;-63
2022/09/15 06:35:23;;;;;;;7.03;2.87;;;;;;;31.94;32.35;99163.78;5053512;28;20644;-64
2022/09/15 06:37:50;;;;;;;8.73;2.87;;;;;;;32.09;32.17;99163.06;5053439;28;20197;-63
2022/09/15 06:40:17;;;;;;;9.80;3.10;;;;;;;31.93;32.10;99181.41;5051974;28;20196;-64
2022/09/15 06:42:44;;;;;;;4.13;2.60;;;;;;;31.89;32.18;99180.47;5053252;28;20250;-64
2022/09/15 06:45:12;;;;;;;10.83;3.47;;;;;;;32.08;32.09;99168.91;5053106;28;20242;-64
2022/09/15 06:47:39;;;;;;;8.70;2.83;;;;;;;32.32;30.99;99168.91;5053159;28;20633;-64
2022/09/15 06:50:06;;;;;;;5.47;2.83;;;;;;;32.45;30.46;99165.81;5053242;28;20250;-63
2022/09/15 06:52:33;;;;;;;4.43;2.53;;;;;;;32.28;31.18;99160.53;5052978;28;20192;-64
2022/09/15 06:55:00;;;;;;;8.03;3.20;;;;;;;32.21;31.68;99152.06;5052814;28;20192;-64
2022/09/15 06:57:27;;;;;;;9.10;2.63;;;;;;;32.37;31.50;99147.47;5052707;28;20731;-64
2022/09/15 06:59:53;;;;;;;8.90;3.30;;;;;;;32.58;31.00;99145.34;5052571;28;20193;-64
2022/09/15 07:02:21;;;;;;;10.20;3.50;;;;;;;32.65;30.45;99148.31;5052282;28;20250;-65
2022/09/15 07:04:48;;;;;;;6.87;3.83;;;;;;;32.80;30.87;99155.88;5051043;28;20622;-65
2022/09/15 07:07:15;;;;;;;9.50;3.83;;;;;;;32.93;30.12;99149.16;5051088;28;20230;-64
2022/09/15 07:09:42;;;;;;;7.07;3.73;;;;;;;32.73;30.07;99147.38;5060125;28;20319;-64
2022/09/15 07:12:09;;;;;;;8.00;4.03;;;;;;;32.21;31.10;99148.53;5072947;28;20257;-64
2022/09/15 07:14:35;;;;;;;6.73;3.57;;;;;;;32.28;31.24;99138.53;5072434;28;20540;-63
2022/09/15 07:17:02;;;;;;;10.33;3.03;;;;;;;32.27;31.47;99142.44;5072518;28;20227;-64
2022/09/15 07:19:30;;;;;;;12.67;3.70;;;;;;;32.31;31.83;99142.56;5069266;28;20694;-63
2022/09/15 07:21:57;;;;;;;4.87;3.33;;;;;;;32.38;31.41;99149.06;5052105;28;20326;-64
2022/09/15 07:24:24;;;;;;;8.87;3.80;;;;;;;32.60;31.23;99137.56;5050861;28;20196;-67
2022/09/15 07:26:51;;;;;;;7.17;4.00;;;;;;;32.58;30.60;99136.31;5056268;28;20197;-64
2022/09/15 07:29:18;;;;;;;11.87;4.33;;;;;;;32.67;30.85;99125.97;5061167;28;20604;-66
2022/09/15 07:31:45;;;;;;;6.47;4.10;;;;;;;32.85;31.27;99127.28;5062680;28;20352;-65
2022/09/15 07:34:11;;;;;;;15.77;5.00;;;;;;;32.75;31.16;99136.81;5058600;28;20200;-65
2022/09/15 07:36:39;;;;;;;14.30;5.57;;;;;;;32.82;31.38;99131.53;5052088;28;20315;-66
2022/09/15 07:39:06;;;;;;;10.27;4.53;;;;;;;32.77;31.12;99134.53;5052647;28;20628;-65
2022/09/15 07:41:33;;;;;;;12.43;5.13;;;;;;;32.96;30.43;99137.44;5052359;28;20205;-65
2022/09/15 07:44:00;;;;;;;12.30;5.27;;;;;;;32.98;30.72;99139.84;5052308;28;20250;-65
2022/09/15 07:46:30;;;;;;;8.13;5.30;;;;;;;32.85;30.89;99147.38;5052373;28;20249;-65
2022/09/15 07:48:57;;;;;;;16.80;4.90;;;;;;;32.92;31.27;99146.75;5052697;28;20189;-65
2022/09/15 07:51:24;;;;;;;25.90;6.83;;;;;;;33.04;31.20;99144.72;5051775;28;20208;-64
2022/09/15 07:53:53;;;;;;;12.77;5.50;;;;;;;32.57;31.12;99152.00;5052108;28;20274;-64
2022/09/15 07:56:21;;;;;;;12.47;5.37;;;;;;;32.55;31.11;99154.31;5052107;28;20301;-65
2022/09/15 07:58:48;;;;;;;8.10;4.93;;;;;;;32.80;31.10;99144.88;5051740;28;20678;-65
2022/09/15 08:01:17;;;;;;;14.60;4.87;;;;;;;32.95;30.71;99141.34;5051948;28;20261;-65
2022/09/15 08:03:47;;;;;;;12.93;4.50;;;;;;;32.67;31.15;99136.97;5059370;28;20239;-68
2022/09/15 08:06:14;;;;;;;12.10;4.40;;;;;;;32.43;31.54;99139.78;5061596;28;20188;-64
2022/09/15 08:08:42;;;;;;;10.07;4.90;;;;;;;32.56;31.68;99139.41;5071129;28;20219;-64
2022/09/15 08:11:13;;;;;;;9.07;3.80;;;;;;;32.25;31.50;99133.72;5072549;28;20189;-64
2022/09/15 08:13:40;;;;;;;15.17;4.60;;;;;;;32.07;31.88;99129.66;5071601;28;20187;-64
2022/09/15 08:16:08;;;;;;;7.60;4.17;;;;;;;32.08;31.58;99131.25;5071885;28;20280;-64
2022/09/15 08:18:36;;;;;;;16.90;4.97;;;;;;;32.17;32.14;99131.13;5071713;28;20259;-64
2022/09/15 08:21:06;;;;;;;12.73;5.40;;;;;;;30.77;34.33;99132.59;5055592;28;20629;-65
2022/09/15 08:23:33;;;;;;;9.97;4.77;;;;;;;30.95;33.80;99138.72;5051693;28;20195;-65
2022/09/15 08:25:59;;;;;;;14.13;4.87;;;;;;;31.22;33.16;99144.41;5051349;28;20307;-65
2022/09/15 08:28:27;;;;;;;10.77;4.13;;;;;;;31.17;32.93;99135.59;5051671;28;20200;-65
2022/09/15 08:31:00;;;;;;;6.00;4.40;;;;;;;31.72;33.16;99136.72;5051553;28;20200;-64
2022/09/15 08:33:28;;;;;;;18.60;5.13;;;;;;;31.62;33.28;99139.94;5051585;28;20224;-64
2022/09/15 08:35:55;;;;;;;15.17;5.03;;;;;;;32.08;32.28;99134.00;5051561;28;20189;-64
2022/09/15 08:38:22;;;;;;;16.17;5.63;;;;;;;32.25;31.19;99144.72;5051679;28;20220;-66
2022/09/15 08:40:48;;;;;;;20.00;5.27;;;;;;;32.35;31.62;99147.03;5051060;28;20258;-66
2022/09/15 08:43:23;;;;;;;12.50;4.50;;;;;;;32.43;31.43;99145.28;5051695;28;20200;-66
2022/09/15 08:45:56;;;;;;;15.40;4.80;;;;;;;32.40;31.07;99144.03;5051439;28;20188;-65
2022/09/15 08:48:29;;;;;;;12.57;4.33;;;;;;;32.49;31.64;99130.94;5051729;28;20192;-65
2022/09/15 08:50:59;;;;;;;11.07;4.43;;;;;;;32.71;31.24;99137.88;5065033;28;20658;-63
2022/09/15 08:53:31;;;;;;;20.47;4.73;;;;;;;32.79;30.79;99143.22;5071906;28;20631;-64
2022/09/15 08:56:00;;;;;;;12.03;4.50;;;;;;;32.76;30.68;99130.19;5071456;28;20249;-65
2022/09/15 08:58:31;;;;;;;10.37;3.77;;;;;;;32.96;30.60;99131.91;5069283;28;20196;-66
2022/09/15 09:01:04;;;;;;;16.13;4.40;;;;;;;33.12;30.21;99135.50;5058120;28;20180;-63
2022/09/15 09:03:47;;;;;;;9.30;3.90;;;;;;;33.20;30.66;99126.28;5064039;28;20184;-64
2022/09/15 09:06:26;;;;;;;7.53;4.20;;;;;;;33.33;30.50;99131.75;5053014;28;20275;-64
2022/09/15 09:09:11;;;;;;;8.15;2.85;;;;;;;33.48;29.85;99128.22;5070410;28;20845;-65
2022/09/15 09:11:56;;;;;;;12.38;3.50;;;;;;;33.53;29.21;99130.69;5070058;28;20261;-63
2022/09/15 09:14:33;;;;;;;7.60;3.25;;;;;;;33.65;30.14;99125.09;5070434;28;20270;-70
2022/09/15 09:17:23;;;;;;;20.40;3.80;;;;;;;33.35;29.82;99110.19;5068998;28;20214;-66
2022/09/15 09:20:30;;;;;;;7.32;2.90;;;;;;;33.45;28.86;99115.97;5063064;28;20258;-64
2022/09/15 09:23:01;;;;;;;4.32;2.58;;;;;;;33.62;29.80;99109.28;5049571;28;20279;-64
2022/09/15 09:25:27;;;;;;;6.55;2.75;;;;;;;33.85;29.37;99099.25;5049921;28;20567;-66
2022/09/15 09:27:55;;;;;;;7.22;2.58;;;;;;;34.03;29.12;99097.69;5053234;28;20203;-64
2022/09/15 09:30:23;;;;;;;8.48;2.53;;;;;;;34.07;28.64;99095.81;5052531;28;20192;-65
2022/09/15 09:32:59;;;;;;;2.67;2.47;;;;;;;34.13;28.14;99099.88;5047116;28;20247;-63
2022/09/15 09:35:34;;;;;;;8.75;2.95;;;;;;;34.14;28.64;99093.22;5068828;28;20245;-65
2022/09/15 09:38:01;;;;;;;10.38;2.75;;;;;;;34.11;28.37;99091.97;5063899;28;20215;-67
2022/09/15 09:40:30;;;;;;;7.28;2.92;;;;;;;34.09;28.83;99086.00;5061406;28;20283;-65
2022/09/15 09:42:56;;;;;;;9.18;2.63;;;;;;;34.27;28.92;99081.69;5072040;28;20644;-64
2022/09/15 09:45:23;;;;;;;6.78;2.50;;;;;;;34.28;28.27;99072.25;5069029;28;20760;-64
2022/09/15 09:47:54;;;;;;;12.48;2.70;;;;;;;34.42;27.83;99077.31;5071658;28;20329;-65
2022/09/15 09:50:37;;;;;;;6.07;1.90;;;;;;;34.39;28.32;99072.50;5071296;28;20188;-68
2022/09/15 09:53:25;;;;;;;5.20;2.22;;;;;;;34.56;26.95;99067.34;5071803;28;20667;-65
2022/09/15 09:55:53;;;;;;;6.13;2.47;;;;;;;34.73;26.75;99058.59;5072288;28;20180;-64
2022/09/15 09:58:23;;;;;;;7.28;2.42;;;;;;;34.81;27.15;99056.81;5068176;28;20981;-69
2022/09/15 10:00:50;;;;;;;11.48;2.65;;;;;;;34.79;27.88;99059.13;5070411;28;20196;-66
2022/09/15 10:03:20;;;;;;;11.88;2.40;;;;;;;34.61;27.72;99052.44;5071411;28;20614;-64
2022/09/15 10:06:04;;;;;;;5.93;1.80;;;;;;;34.45;27.73;99054.50;5068747;28;20553;-68
2022/09/15 10:08:31;;;;;;;4.53;2.58;;;;;;;34.49;27.25;99044.34;5080015;28;20235;-66
2022/09/15 10:11:02;;;;;;;2.97;2.20;;;;;;;34.56;27.09;99045.28;5082317;28;20189;-69
2022/09/15 10:13:29;;;;;;;7.15;2.33;;;;;;;34.66;26.59;99036.38;5084560;28;20188;-63
2022/09/15 10:16:00;;;;;;;48.05;4.07;;;;;;;34.73;26.84;99027.44;5069811;28;20234;-64
2022/09/15 10:18:33;;;;;;;10.52;2.60;;;;;;;34.61;27.20;99024.84;5068715;28;20691;-64
2022/09/15 10:21:01;;;;;;;5.50;2.35;;;;;;;34.40;27.02;99016.16;5055592;28;20656;-67
2022/09/15 10:23:30;;;;;;;6.57;1.70;;;;;;;34.59;26.88;99025.22;5048969;28;20227;-65
2022/09/15 10:26:17;;;;;;;4.13;2.03;;;;;;;34.27;26.87;99020.19;5065797;28;20209;-67
2022/09/15 10:29:03;;;;;;;8.32;2.08;;;;;;;34.01;27.36;99012.56;5049794;28;20554;-65
2022/09/15 10:31:33;;;;;;;4.55;2.45;;;;;;;34.13;27.24;99008.88;5049213;28;20224;-66
2022/09/15 10:34:29;;;;;;;6.60;2.40;;;;;;;34.19;27.29;99001.91;5060729;28;20281;-64
2022/09/15 10:37:06;;;;;;;7.85;2.60;;;;;;;34.31;27.49;98994.31;5068691;28;20211;-67
2022/09/15 10:39:47;;;;;;;5.32;2.58;;;;;;;34.35;27.17;99002.66;5068520;28;20852;-65
2022/09/15 10:42:21;;;;;;;9.25;2.50;;;;;;;34.49;27.12;98998.22;5068718;28;20293;-67
2022/09/15 10:45:00;;;;;;;7.05;3.20;;;;;;;34.59;27.53;98994.06;5069589;28;20187;-65
2022/09/15 10:47:41;;;;;;;3.95;2.28;;;;;;;34.28;26.70;99000.53;5068914;28;20183;-67
2022/09/15 10:50:15;;;;;;;8.48;3.00;;;;;;;34.54;26.14;99013.69;5069330;28;20184;-65
2022/09/15 10:52:55;;;;;;;8.85;2.67;;;;;;;34.72;26.11;99003.78;5069693;28;20712;-64
2022/09/15 10:55:35;;;;;;;7.40;2.88;;;;;;;34.55;26.61;98994.00;5067767;28;20570;-64
2022/09/15 10:58:23;;;;;;;5.50;2.60;;;;;;;34.73;26.51;98977.75;5068875;28;20739;-65
2022/09/15 11:00:58;;;;;;;7.68;2.58;;;;;;;34.49;26.08;98973.38;5068467;28;20199;-65
2022/09/15 11:03:42;;;;;;;8.98;4.75;;;;;;;34.36;26.50;98979.44;5069705;28;20188;-65
2022/09/15 11:06:19;;;;;;;5.15;3.15;;;;;;;34.23;27.00;98976.00;5063421;28;20192;-65
2022/09/15 11:09:06;;;;;;;9.65;3.17;;;;;;;34.65;26.16;98978.78;5055653;28;20707;-63
2022/09/15 11:11:58;;;;;;;7.57;3.00;;;;;;;34.92;25.94;98973.03;5077654;28;20264;-64
2022/09/15 11:14:38;;;;;;;5.68;2.72;;;;;;;34.91;25.83;98973.38;5084849;28;20245;-65
2022/09/15 11:17:22;;;;;;;8.77;3.20;;;;;;;34.66;25.14;98961.09;5072221;28;20211;-64
2022/09/15 11:20:13;;;;;;;9.65;3.38;;;;;;;34.57;25.36;98955.78;5066828;28;20185;-63
2022/09/15 11:22:48;;;;;;;4.68;2.75;;;;;;;34.78;24.90;98955.38;5057234;28;20234;-64
2022/09/15 11:25:19;;;;;;;6.80;2.60;;;;;;;34.84;25.35;98956.69;5071798;28;20735;-64
2022/09/15 11:27:52;;;;;;;7.10;2.65;;;;;;;35.12;24.79;98946.13;5071323;28;20617;-63
2022/09/15 11:30:21;;;;;;;4.07;2.90;;;;;;;35.16;24.98;98941.44;5069835;28;20184;-64
2022/09/15 11:32:57;;;;;;;12.88;2.97;;;;;;;35.31;24.64;98946.84;5067699;28;20917;-67
2022/09/15 11:35:34;;;;;;;9.95;3.35;;;;;;;35.43;24.80;98943.09;5069658;28;20179;-64
2022/09/15 11:38:12;;;;;;;8.35;3.15;;;;;;;35.29;24.82;98940.09;5068936;28;20216;-66
2022/09/15 11:40:47;;;;;;;6.07;3.03;;;;;;;35.34;24.97;98931.47;5070005;28;20241;-65
2022/09/15 11:43:23;;;;;;;7.85;3.20;;;;;;;35.23;25.47;98925.78;5069681;28;20188;-67
2022/09/15 11:45:55;;;;;;;7.55;2.67;;;;;;;35.42;25.27;98919.38;5070611;28;20183;-68
2022/09/15 11:48:28;;;;;;;11.35;3.40;;;;;;;35.57;24.78;98929.47;5068576;28;20194;-69